Time;durP1;ratioP1;P1;durP2;ratioP2;P2;SDS_P1;SDS_P2;PMS_P1;PMS_P2;Temp;Humidity;BMP_temperature;BMP_pressure;BME280_temperature;BME280_humidity;BME280_pressure;Samples;Min_cycle;Max_cycle;Signal;HPM_P1;HPM_P2
2024/01/05 00:00:08;;;;;;;32.83;16.70;;;;;;;3.95;100.00;99338.94;5066700;28;20044;-48
2024/01/05 00:02:36;;;;;;;32.42;16.10;;;;;;;3.97;100.00;99335.91;5065334;28;20056;-48
2024/01/05 00:05:03;;;;;;;32.67;16.45;;;;;;;3.96;100.00;99328.81;5062892;28;20048;-47
2024/01/05 00:07:31;;;;;;;36.75;17.25;;;;;;;3.92;100.00;99331.41;5064713;28;20695;-48
2024/01/05 00:09:59;;;;;;;31.30;17.50;;;;;;;3.90;100.00;99341.91;5049428;28;20506;-47
2024/01/05 00:12:27;;;;;;;29.42;15.93;;;;;;;3.89;100.00;99336.75;5065972;28;20045;-52
2024/01/05 00:14:55;;;;;;;35.63;15.55;;;;;;;3.86;100.00;99340.97;5066512;28;20048;-51
2024/01/05 00:17:22;;;;;;;32.33;17.27;;;;;;;3.87;100.00;99342.56;5067308;28;20044;-49
2024/01/05 00:19:50;;;;;;;32.47;14.18;;;;;;;3.86;100.00;99357.41;5048043;28;20053;-50
2024/01/05 00:22:17;;;;;;;27.45;13.88;;;;;;;3.86;100.00;99351.94;5063233;28;20410;-51
2024/01/05 00:24:45;;;;;;;29.65;15.75;;;;;;;3.89;100.00;99355.94;5066949;28;20040;-52
2024/01/05 00:27:14;;;;;;;27.90;14.30;;;;;;;3.91;100.00;99357.19;5066859;28;20047;-48
2024/01/05 00:29:41;;;;;;;28.55;13.85;;;;;;;3.90;100.00;99352.03;5064786;28;20052;-52
2024/01/05 00:32:09;;;;;;;28.70;14.32;;;;;;;3.90;100.00;99363.78;5067348;28;20115;-50
2024/01/05 00:34:36;;;;;;;27.38;13.90;;;;;;;3.92;100.00;99358.78;5065121;28;20044;-49
2024/01/05 00:37:04;;;;;;;28.10;15.23;;;;;;;3.95;100.00;99358.13;5067631;28;20067;-50
2024/01/05 00:39:32;;;;;;;29.10;13.88;;;;;;;3.96;100.00;99351.50;5069098;28;20036;-48
2024/01/05 00:42:01;;;;;;;33.65;15.38;;;;;;;3.96;100.00;99351.50;5064326;28;20048;-47
2024/01/05 00:44:29;;;;;;;29.60;15.82;;;;;;;3.95;100.00;99355.38;5060380;28;20132;-52
2024/01/05 00:46:56;;;;;;;27.25;12.75;;;;;;;3.95;100.00;99355.38;5065475;28;20611;-46
2024/01/05 00:49:24;;;;;;;32.33;13.98;;;;;;;3.94;100.00;99356.53;5069660;28;20033;-47
2024/01/05 00:51:51;;;;;;;32.15;14.48;;;;;;;3.98;100.00;99365.66;5067853;28;20052;-50
2024/01/05 00:54:18;;;;;;;30.75;14.80;;;;;;;3.99;100.00;99361.81;5069361;28;20064;-47
2024/01/05 00:56:46;;;;;;;36.97;15.85;;;;;;;4.02;100.00;99354.84;5061951;28;20403;-51
2024/01/05 00:59:13;;;;;;;32.08;13.90;;;;;;;4.02;100.00;99361.13;5068903;28;20086;-48
2024/01/05 01:01:41;;;;;;;32.70;13.43;;;;;;;4.03;100.00;99367.38;5069575;28;20049;-53
2024/01/05 01:04:08;;;;;;;23.73;12.55;;;;;;;4.03;100.00;99370.94;5068656;28;20037;-47
2024/01/05 01:06:35;;;;;;;20.90;11.93;;;;;;;4.02;100.00;99374.81;5069522;28;20051;-45
2024/01/05 01:09:03;;;;;;;27.17;13.02;;;;;;;4.01;100.00;99373.22;5068302;28;20043;-50
2024/01/05 01:11:30;;;;;;;24.05;12.93;;;;;;;4.00;100.00;99371.59;5062128;28;20041;-48
2024/01/05 01:13:57;;;;;;;31.25;14.68;;;;;;;3.99;100.00;99380.97;5066742;28;20530;-48
2024/01/05 01:16:25;;;;;;;26.05;12.90;;;;;;;4.00;100.00;99374.34;5068169;28;20573;-47
2024/01/05 01:18:52;;;;;;;36.53;15.30;;;;;;;4.02;100.00;99380.31;5066996;28;20063;-51
2024/01/05 01:21:20;;;;;;;27.40;12.90;;;;;;;4.03;100.00;99370.94;5068622;28;20524;-46
2024/01/05 01:23:47;;;;;;;25.08;13.48;;;;;;;4.05;100.00;99382.34;5069015;28;20041;-50
2024/01/05 01:26:14;;;;;;;27.00;13.68;;;;;;;4.06;100.00;99383.97;5068141;28;20091;-49
2024/01/05 01:28:42;;;;;;;26.23;11.70;;;;;;;4.05;100.00;99374.13;5068046;28;20048;-50
2024/01/05 01:31:09;;;;;;;28.23;13.45;;;;;;;4.05;100.00;99371.41;5068008;28;20402;-45
2024/01/05 01:33:36;;;;;;;21.65;11.88;;;;;;;4.08;100.00;99381.69;5068888;28;20048;-52
2024/01/05 01:36:04;;;;;;;31.83;13.60;;;;;;;4.08;100.00;99372.66;5067850;28;20481;-50
2024/01/05 01:38:32;;;;;;;31.77;12.27;;;;;;;4.11;100.00;99386.50;5067825;28;20041;-52
2024/01/05 01:40:59;;;;;;;26.20;12.07;;;;;;;4.10;100.00;99379.41;5068046;28;20056;-47
2024/01/05 01:43:27;;;;;;;30.33;11.55;;;;;;;4.10;100.00;99381.38;5061683;28;20041;-49
2024/01/05 01:45:59;;;;;;;28.15;12.60;;;;;;;4.05;100.00;99376.88;5060255;28;20047;-51
2024/01/05 01:48:29;;;;;;;22.58;9.98;;;;;;;4.03;100.00;99390.09;5068114;28;20051;-49
2024/01/05 01:50:58;;;;;;;22.30;11.10;;;;;;;4.00;100.00;99379.00;5067562;28;20048;-50
2024/01/05 01:53:27;;;;;;;22.27;11.30;;;;;;;3.98;100.00;99375.81;5067847;28;20397;-46
2024/01/05 01:55:55;;;;;;;20.60;11.93;;;;;;;3.95;100.00;99382.75;5067426;28;20063;-51
2024/01/05 01:58:24;;;;;;;24.65;10.85;;;;;;;3.94;100.00;99383.91;5068168;28;20041;-52
2024/01/05 02:00:53;;;;;;;27.27;10.55;;;;;;;3.92;100.00;99383.41;5067428;28;20057;-52
2024/01/05 02:03:21;;;;;;;16.52;10.00;;;;;;;3.92;100.00;99388.91;5067952;28;20056;-48
2024/01/05 02:05:49;;;;;;;21.50;11.88;;;;;;;3.91;100.00;99381.84;5068062;28;20048;-48
2024/01/05 02:08:18;;;;;;;23.98;11.23;;;;;;;3.90;100.00;99379.41;5067705;28;20047;-48
2024/01/05 02:10:46;;;;;;;20.98;11.32;;;;;;;3.88;100.00;99387.97;5067767;28;20064;-47
2024/01/05 02:13:13;;;;;;;28.50;13.30;;;;;;;3.88;100.00;99384.44;5067890;28;20044;-48
2024/01/05 02:15:41;;;;;;;23.67;12.10;;;;;;;3.89;100.00;99389.56;5066990;28;20051;-48
2024/01/05 02:18:12;;;;;;;23.75;11.20;;;;;;;3.90;100.00;99393.91;5067215;28;20057;-47
2024/01/05 02:20:40;;;;;;;22.88;12.02;;;;;;;3.92;100.00;99393.59;5067834;28;20077;-51
2024/01/05 02:23:16;;;;;;;27.05;12.27;;;;;;;3.93;100.00;99396.00;5055036;28;20041;-49
2024/01/05 02:25:43;;;;;;;25.65;11.85;;;;;;;3.93;100.00;99396.00;5059838;28;20044;-49
2024/01/05 02:28:10;;;;;;;28.02;13.52;;;;;;;3.92;100.00;99402.59;5067172;28;20070;-49
2024/01/05 02:30:38;;;;;;;29.13;12.70;;;;;;;3.90;100.00;99401.31;5067320;28;20514;-50
2024/01/05 02:33:05;;;;;;;27.10;11.93;;;;;;;3.88;100.00;99415.34;5067189;28;20048;-47
2024/01/05 02:35:33;;;;;;;23.15;11.90;;;;;;;3.84;100.00;99414.41;5067650;28;20055;-46
2024/01/05 02:38:01;;;;;;;29.83;14.55;;;;;;;3.83;100.00;99412.00;5066586;28;20040;-46
2024/01/05 02:40:28;;;;;;;26.45;13.38;;;;;;;3.82;100.00;99416.69;5049941;28;20044;-46
2024/01/05 02:42:55;;;;;;;23.17;12.50;;;;;;;3.82;100.00;99421.34;5067375;28;20041;-47
2024/01/05 02:45:24;;;;;;;23.55;13.45;;;;;;;3.85;100.00;99420.69;5065785;28;20063;-49
2024/01/05 02:47:51;;;;;;;23.05;12.70;;;;;;;3.87;100.00;99421.94;5061384;28;20048;-53
2024/01/05 02:50:20;;;;;;;28.42;12.50;;;;;;;3.91;100.00;99427.56;5048458;28;20550;-47
2024/01/05 02:52:47;;;;;;;27.42;12.52;;;;;;;3.95;100.00;99420.28;5066297;28;20532;-49
2024/01/05 02:55:15;;;;;;;25.70;12.70;;;;;;;3.96;100.00;99411.75;5066415;28;20048;-49
2024/01/05 02:57:42;;;;;;;22.08;11.55;;;;;;;3.97;100.00;99418.03;5065590;28;20048;-48
2024/01/05 03:00:10;;;;;;;22.77;11.80;;;;;;;3.95;100.00;99421.09;5065847;28;20048;-47
2024/01/05 03:02:37;;;;;;;21.90;10.48;;;;;;;3.93;100.00;99417.88;5113861;22;20049;-52
2024/01/05 03:05:05;;;;;;;23.48;12.30;;;;;;;3.89;100.00;99422.41;5066308;28;20071;-46
2024/01/05 03:07:33;;;;;;;23.77;11.15;;;;;;;3.88;100.00;99423.56;5065545;28;20044;-45
2024/01/05 03:10:00;;;;;;;26.10;11.52;;;;;;;3.88;100.00;99434.53;5065918;28;20059;-47
2024/01/05 03:12:28;;;;;;;21.83;12.20;;;;;;;3.87;100.00;99430.16;5064530;28;20059;-52
2024/01/05 03:14:55;;;;;;;21.15;11.07;;;;;;;3.86;100.00;99423.09;5065993;28;20041;-53
2024/01/05 03:17:22;;;;;;;18.58;9.70;;;;;;;3.83;100.00;99429.25;5048716;28;20060;-49
2024/01/05 03:19:50;;;;;;;21.00;10.32;;;;;;;3.79;100.00;99427.47;5066979;28;20041;-54
2024/01/05 03:22:17;;;;;;;21.88;10.88;;;;;;;3.77;100.00;99427.81;5062335;28;20060;-47
2024/01/05 03:24:45;;;;;;;21.50;11.25;;;;;;;3.75;100.00;99434.75;5065668;28;20669;-47
2024/01/05 03:27:13;;;;;;;19.88;9.52;;;;;;;3.72;100.00;99428.03;5065922;28;20505;-46
2024/01/05 03:29:41;;;;;;;18.75;9.65;;;;;;;3.70;100.00;99433.03;5065986;28;20044;-49
2024/01/05 03:32:08;;;;;;;22.02;9.85;;;;;;;3.69;100.00;99428.69;5064105;28;20048;-47
2024/01/05 03:34:37;;;;;;;22.02;9.98;;;;;;;3.68;100.00;99435.28;5053432;28;20042;-54
2024/01/05 03:37:04;;;;;;;20.73;9.30;;;;;;;3.71;100.00;99436.56;5067080;28;20051;-46
2024/01/05 03:39:33;;;;;;;24.45;9.98;;;;;;;3.69;100.00;99442.38;5065700;28;20060;-46
2024/01/05 03:42:00;;;;;;;20.13;9.68;;;;;;;3.67;100.00;99450.91;5066423;28;20500;-49
2024/01/05 03:44:28;;;;;;;24.98;9.30;;;;;;;3.65;100.00;99444.94;5066188;28;20063;-48
2024/01/05 03:46:59;;;;;;;21.33;10.40;;;;;;;3.65;100.00;99446.91;5066875;28;20139;-45
2024/01/05 03:49:26;;;;;;;24.10;9.65;;;;;;;3.62;100.00;99442.91;5066517;28;20048;-46
2024/01/05 03:51:53;;;;;;;17.80;8.95;;;;;;;3.61;100.00;99437.75;5066710;28;20044;-46
2024/01/05 03:54:22;;;;;;;19.98;9.80;;;;;;;3.61;100.00;99443.22;5065981;28;20048;-47
2024/01/05 03:56:49;;;;;;;23.67;9.75;;;;;;;3.60;100.00;99452.56;5066245;28;20055;-52
2024/01/05 03:59:17;;;;;;;17.10;9.43;;;;;;;3.60;100.00;99452.56;5065787;28;20052;-48
2024/01/05 04:01:47;;;;;;;19.45;9.77;;;;;;;3.61;100.00;99449.50;5066697;28;20525;-46
2024/01/05 04:04:14;;;;;;;23.60;10.02;;;;;;;3.63;100.00;99446.41;5065014;28;20045;-45
2024/01/05 04:06:42;;;;;;;21.63;9.85;;;;;;;3.64;100.00;99448.03;5048708;28;20458;-50
2024/01/05 04:09:10;;;;;;;16.08;8.38;;;;;;;3.63;100.00;99446.41;5067702;28;20059;-47
2024/01/05 04:11:38;;;;;;;18.17;9.10;;;;;;;3.60;100.00;99438.91;5066344;28;20047;-46
2024/01/05 04:14:06;;;;;;;15.15;7.22;;;;;;;3.60;100.00;99447.09;5069430;28;20045;-45
2024/01/05 04:16:34;;;;;;;19.42;8.35;;;;;;;3.58;100.00;99444.69;5069247;28;20051;-46
2024/01/05 04:19:02;;;;;;;18.15;7.40;;;;;;;3.55;100.00;99445.34;5069526;28;20044;-45
2024/01/05 04:21:30;;;;;;;12.98;7.28;;;;;;;3.54;100.00;99448.41;5069306;28;20048;-53
2024/01/05 04:23:58;;;;;;;16.42;7.80;;;;;;;3.52;100.00;99447.94;5067146;28;20052;-47
2024/01/05 04:26:26;;;;;;;23.65;8.05;;;;;;;3.51;100.00;99449.06;5069142;28;20052;-47
2024/01/05 04:28:53;;;;;;;16.52;7.30;;;;;;;3.48;100.00;99457.94;5065165;28;20075;-47
2024/01/05 04:31:21;;;;;;;23.55;7.57;;;;;;;3.46;100.00;99460.22;5068809;28;20524;-46
2024/01/05 04:33:48;;;;;;;13.05;7.22;;;;;;;3.45;100.00;99455.84;5067294;28;20051;-47
2024/01/05 04:36:16;;;;;;;14.68;6.63;;;;;;;3.43;100.00;99463.59;5069282;28;20394;-47
2024/01/05 04:38:46;;;;;;;18.58;7.32;;;;;;;3.41;100.00;99452.19;5069353;28;20049;-46
2024/01/05 04:41:16;;;;;;;15.70;7.57;;;;;;;3.40;100.00;99464.25;5068839;28;20044;-45
2024/01/05 04:43:44;;;;;;;15.68;7.70;;;;;;;3.37;100.00;99471.19;5068607;28;20056;-46
2024/01/05 04:46:11;;;;;;;19.15;7.75;;;;;;;3.35;100.00;99458.97;5068782;28;20063;-48
2024/01/05 04:48:39;;;;;;;13.25;5.95;;;;;;;3.34;100.00;99476.50;5068716;28;20044;-46
2024/01/05 04:51:07;;;;;;;15.65;6.60;;;;;;;3.32;100.00;99476.03;5068082;28;20059;-49
2024/01/05 04:53:34;;;;;;;13.48;7.03;;;;;;;3.31;100.00;99471.72;5050902;28;20412;-46
2024/01/05 04:56:03;;;;;;;15.35;6.50;;;;;;;3.29;100.00;99485.69;5068068;28;20559;-47
2024/01/05 04:58:30;;;;;;;12.10;6.22;;;;;;;3.29;100.00;99480.22;5069059;28;20040;-45
2024/01/05 05:00:58;;;;;;;14.57;6.20;;;;;;;3.29;100.00;99484.88;5068510;28;20040;-51
2024/01/05 05:03:26;;;;;;;10.98;5.85;;;;;;;3.30;100.00;99489.25;5068734;28;20557;-50
2024/01/05 05:05:55;;;;;;;11.48;6.07;;;;;;;3.28;100.00;99496.97;5068103;28;20128;-50
2024/01/05 05:08:22;;;;;;;13.13;5.95;;;;;;;3.26;100.00;99496.47;5059649;28;20052;-46
2024/01/05 05:10:49;;;;;;;11.50;5.60;;;;;;;3.23;100.00;99492.47;5069088;28;20052;-47
2024/01/05 05:13:17;;;;;;;15.27;5.50;;;;;;;3.20;100.00;99495.06;5068765;28;20048;-51
2024/01/05 05:15:44;;;;;;;22.08;5.95;;;;;;;3.17;100.00;99504.72;5067508;28;20407;-49
2024/01/05 05:18:12;;;;;;;16.00;6.72;;;;;;;3.15;100.00;99496.03;5068822;28;20059;-45
2024/01/05 05:20:40;;;;;;;15.93;5.72;;;;;;;3.14;100.00;99504.56;5068587;28;20516;-46
2024/01/05 05:23:08;;;;;;;10.88;5.20;;;;;;;3.11;100.00;99513.41;5041767;28;20540;-46
2024/01/05 05:25:35;;;;;;;14.00;6.25;;;;;;;3.08;100.00;99518.41;5067138;28;20041;-45
2024/01/05 05:28:02;;;;;;;11.35;5.60;;;;;;;3.07;100.00;99527.75;5068244;28;20060;-46
2024/01/05 05:30:31;;;;;;;8.00;4.82;;;;;;;3.04;100.00;99522.91;5067900;28;20059;-47
2024/01/05 05:32:59;;;;;;;16.90;5.38;;;;;;;3.03;100.00;99510.38;5067035;28;20061;-46
2024/01/05 05:35:26;;;;;;;15.50;5.63;;;;;;;3.02;100.00;99518.91;5068058;28;20502;-47
2024/01/05 05:37:55;;;;;;;19.40;5.78;;;;;;;2.99;100.00;99512.16;5067875;28;20603;-47
2024/01/05 05:40:22;;;;;;;10.85;5.05;;;;;;;2.97;100.00;99516.34;5056425;28;20056;-45
2024/01/05 05:42:50;;;;;;;12.10;5.30;;;;;;;2.95;100.00;99519.41;5068122;28;20044;-47
2024/01/05 05:45:17;;;;;;;15.40;4.50;;;;;;;2.92;100.00;99531.00;5059570;28;20040;-46
2024/01/05 05:47:44;;;;;;;12.73;4.30;;;;;;;2.91;100.00;99523.13;5063399;28;20056;-48
2024/01/05 05:50:13;;;;;;;14.45;5.15;;;;;;;2.90;100.00;99529.72;5068545;28;20040;-47
2024/01/05 05:52:40;;;;;;;9.65;4.95;;;;;;;2.90;100.00;99529.72;5067728;28;20040;-47
2024/01/05 05:55:12;;;;;;;9.40;4.95;;;;;;;2.89;100.00;99537.09;5067110;28;20506;-49
2024/01/05 05:57:40;;;;;;;18.83;6.45;;;;;;;2.88;100.00;99532.78;5054119;28;20051;-48
2024/01/05 06:00:08;;;;;;;11.27;3.90;;;;;;;2.86;100.00;99537.75;5067561;28;20382;-48
2024/01/05 06:02:37;;;;;;;9.60;4.15;;;;;;;2.83;100.00;99538.38;5067343;28;20421;-46
2024/01/05 06:05:05;;;;;;;9.68;4.20;;;;;;;2.87;100.00;99544.03;5067331;28;20037;-45
2024/01/05 06:07:33;;;;;;;14.85;4.20;;;;;;;2.88;100.00;99543.72;5067466;28;20037;-48
2024/01/05 06:10:00;;;;;;;6.10;4.13;;;;;;;2.88;100.00;99549.19;5066178;28;20051;-45
2024/01/05 06:12:27;;;;;;;12.90;3.42;;;;;;;2.88;100.00;99562.03;5065224;28;20068;-47
2024/01/05 06:14:55;;;;;;;8.43;3.88;;;;;;;2.87;100.00;99561.22;5067134;28;20048;-46
2024/01/05 06:17:22;;;;;;;7.50;4.03;;;;;;;2.88;100.00;99567.50;5067681;28;20044;-45
2024/01/05 06:19:50;;;;;;;7.95;3.58;;;;;;;2.87;100.00;99563.16;5066621;28;20532;-45
2024/01/05 06:22:18;;;;;;;4.68;3.08;;;;;;;2.86;100.00;99565.06;5066960;28;20048;-49
2024/01/05 06:24:46;;;;;;;9.20;3.60;;;;;;;2.84;100.00;99567.34;5065583;28;20048;-47
2024/01/05 06:27:13;;;;;;;11.52;3.33;;;;;;;2.86;100.00;99570.53;5067034;28;20045;-47
2024/01/05 06:29:51;;;;;;;10.48;3.63;;;;;;;2.86;100.00;99580.69;5068236;28;20045;-48
2024/01/05 06:32:18;;;;;;;11.05;3.17;;;;;;;2.85;100.00;99585.34;5065943;28;20066;-49
2024/01/05 06:34:46;;;;;;;7.82;3.55;;;;;;;2.88;100.00;99581.16;5064999;28;20380;-50
2024/01/05 06:37:13;;;;;;;12.07;3.30;;;;;;;2.88;100.00;99587.44;5067026;28;20060;-45
2024/01/05 06:39:41;;;;;;;11.30;4.80;;;;;;;2.87;100.00;99582.28;5048671;28;20351;-45
2024/01/05 06:42:08;;;;;;;13.07;3.33;;;;;;;2.88;100.00;99586.63;5066721;28;20067;-46
2024/01/05 06:44:35;;;;;;;8.23;3.47;;;;;;;2.87;100.00;99599.50;5066746;28;20504;-48
2024/01/05 06:47:03;;;;;;;5.97;3.17;;;;;;;2.87;100.00;99598.69;5067067;28;20382;-47
2024/01/05 06:49:30;;;;;;;8.35;3.15;;;;;;;2.88;100.00;99603.03;5066676;28;20037;-47
2024/01/05 06:51:58;;;;;;;10.77;3.53;;;;;;;2.87;100.00;99604.97;5047937;28;20045;-46
2024/01/05 06:54:25;;;;;;;8.27;3.20;;;;;;;2.85;100.00;99609.97;5064510;28;20425;-45
2024/01/05 06:56:52;;;;;;;6.13;3.15;;;;;;;2.87;100.00;99612.34;5067181;28;20567;-46
2024/01/05 06:59:20;;;;;;;7.85;2.80;;;;;;;2.86;100.00;99619.75;5066353;28;20044;-51
2024/01/05 07:01:48;;;;;;;8.45;3.45;;;;;;;2.87;100.00;99626.03;5048945;28;20536;-48
2024/01/05 07:04:15;;;;;;;9.38;3.50;;;;;;;2.86;100.00;99627.94;5066037;28;20055;-50
2024/01/05 07:06:42;;;;;;;7.80;3.78;;;;;;;2.84;100.00;99630.19;5066468;28;20055;-46
2024/01/05 07:09:13;;;;;;;11.07;3.28;;;;;;;2.84;100.00;99627.47;5061595;28;20059;-45
2024/01/05 07:11:41;;;;;;;8.32;2.92;;;;;;;2.84;100.00;99626.66;5066400;28;20044;-48
2024/01/05 07:14:08;;;;;;;8.52;3.13;;;;;;;2.83;100.00;99634.06;5065258;28;20107;-49
2024/01/05 07:16:36;;;;;;;8.45;3.17;;;;;;;2.83;100.00;99630.53;5048027;28;20529;-45
2024/01/05 07:19:03;;;;;;;7.95;3.10;;;;;;;2.81;100.00;99630.84;5057096;28;20040;-48
2024/01/05 07:21:31;;;;;;;11.35;4.00;;;;;;;2.80;100.00;99637.44;5066526;28;20053;-47
2024/01/05 07:23:58;;;;;;;9.43;3.30;;;;;;;2.79;100.00;99635.03;5065756;28;20043;-49
2024/01/05 07:26:25;;;;;;;7.88;2.83;;;;;;;2.77;100.00;99638.09;5047873;28;20048;-45
2024/01/05 07:28:55;;;;;;;7.57;4.25;;;;;;;2.76;100.00;99649.31;5043464;28;20098;-49
2024/01/05 07:31:23;;;;;;;8.68;2.90;;;;;;;2.74;100.00;99657.84;5065814;28;20040;-47
2024/01/05 07:33:51;;;;;;;7.63;2.88;;;;;;;2.69;100.00;99652.53;5059887;28;20048;-48
2024/01/05 07:36:19;;;;;;;12.10;2.80;;;;;;;2.67;100.00;99665.72;5065422;28;20048;-49
2024/01/05 07:38:46;;;;;;;9.40;3.15;;;;;;;2.65;100.00;99667.94;5062181;28;20063;-47
2024/01/05 07:41:17;;;;;;;7.22;2.92;;;;;;;2.63;100.00;99664.75;5064204;28;20040;-50
2024/01/05 07:43:45;;;;;;;7.30;3.30;;;;;;;2.63;100.00;99669.41;5064325;28;20510;-46
2024/01/05 07:46:12;;;;;;;16.23;6.75;;;;;;;2.61;100.00;99667.00;5051406;28;20049;-47
2024/01/05 07:48:40;;;;;;;6.78;3.08;;;;;;;2.59;100.00;99666.50;5068170;28;20052;-49
2024/01/05 07:51:10;;;;;;;14.65;3.47;;;;;;;2.58;100.00;99681.28;5049773;28;20044;-48
2024/01/05 07:53:38;;;;;;;9.00;3.10;;;;;;;2.56;100.00;99669.06;5070528;28;20374;-48
2024/01/05 07:56:07;;;;;;;13.43;3.15;;;;;;;2.56;100.00;99693.66;5069992;28;20048;-49
2024/01/05 07:58:35;;;;;;;6.28;4.07;;;;;;;2.53;100.00;99697.84;5070705;28;20048;-45
2024/01/05 08:01:02;;;;;;;12.25;3.42;;;;;;;2.51;100.00;99700.09;5069950;28;20049;-49
2024/01/05 08:03:30;;;;;;;5.10;2.70;;;;;;;2.51;100.00;99711.00;5069634;28;20056;-46
2024/01/05 08:05:57;;;;;;;12.90;2.58;;;;;;;2.51;100.00;99710.19;5051149;28;20056;-50
2024/01/05 08:08:25;;;;;;;10.95;2.40;;;;;;;2.50;100.00;99709.41;5066626;28;20048;-47
2024/01/05 08:10:52;;;;;;;8.82;2.85;;;;;;;2.50;100.00;99708.59;5055460;28;20049;-48
2024/01/05 08:13:25;;;;;;;7.93;2.83;;;;;;;2.46;100.00;99719.34;5066683;28;20051;-45
2024/01/05 08:15:53;;;;;;;7.28;2.40;;;;;;;2.46;100.00;99719.34;5070238;28;20048;-49
2024/01/05 08:18:25;;;;;;;12.43;3.05;;;;;;;2.45;100.00;99728.66;5070547;28;20055;-50
2024/01/05 08:20:52;;;;;;;7.45;2.08;;;;;;;2.46;100.00;99724.81;5070189;28;20048;-50
2024/01/05 08:23:20;;;;;;;6.90;2.53;;;;;;;2.49;100.00;99724.16;5069676;28;20060;-46
2024/01/05 08:25:47;;;;;;;9.43;3.35;;;;;;;2.49;100.00;99729.63;5068693;28;20044;-45
2024/01/05 08:28:15;;;;;;;7.90;2.22;;;;;;;2.51;100.00;99734.78;5068551;28;20890;-45
2024/01/05 08:30:43;;;;;;;7.80;2.72;;;;;;;2.50;100.00;99730.44;5066938;28;20043;-45
2024/01/05 08:33:11;;;;;;;6.20;1.92;;;;;;;2.51;100.00;99738.34;5049921;28;20052;-51
2024/01/05 08:35:39;;;;;;;9.23;3.38;;;;;;;2.51;100.00;99737.53;5047787;28;20263;-47
2024/01/05 08:38:06;;;;;;;6.00;2.22;;;;;;;2.50;100.00;99736.72;5068822;28;20040;-49
2024/01/05 08:40:35;;;;;;;9.70;2.03;;;;;;;2.50;100.00;99758.56;5050423;28;20045;-46
2024/01/05 08:43:02;;;;;;;6.07;2.05;;;;;;;2.51;100.00;99760.19;5068670;28;20049;-48
2024/01/05 08:45:32;;;;;;;11.05;2.88;;;;;;;2.50;100.00;99758.56;5061608;28;20045;-45
2024/01/05 08:48:00;;;;;;;9.30;2.25;;;;;;;2.51;100.00;99771.13;5067758;28;20047;-45
2024/01/05 08:50:27;;;;;;;9.10;2.60;;;;;;;2.53;100.00;99763.41;5066546;28;20049;-48
2024/01/05 08:52:55;;;;;;;7.22;2.08;;;;;;;2.53;100.00;99765.31;5068666;28;20037;-46
2024/01/05 08:55:22;;;;;;;8.15;3.58;;;;;;;2.53;100.00;99765.31;5067237;28;20049;-44
2024/01/05 08:57:50;;;;;;;6.57;1.92;;;;;;;2.53;100.00;99776.25;5067730;28;20061;-47
2024/01/05 09:00:18;;;;;;;10.40;2.58;;;;;;;2.53;100.00;99774.31;5065297;28;20082;-48
2024/01/05 09:02:46;;;;;;;8.70;2.13;;;;;;;2.55;100.00;99782.19;5068496;28;20608;-44
2024/01/05 09:05:13;;;;;;;7.50;2.50;;;;;;;2.53;100.00;99788.00;5067500;28;20040;-44
2024/01/05 09:07:41;;;;;;;14.13;2.53;;;;;;;2.55;100.00;99806.78;5066726;28;20040;-48
2024/01/05 09:10:08;;;;;;;6.78;2.83;;;;;;;2.56;100.00;99801.03;5067066;28;20383;-45
2024/01/05 09:12:37;;;;;;;8.38;1.92;;;;;;;2.57;100.00;99799.88;5067438;28;20045;-48
2024/01/05 09:15:06;;;;;;;6.13;1.70;;;;;;;2.61;100.00;99808.25;5067411;28;20051;-52
2024/01/05 09:17:34;;;;;;;15.73;2.45;;;;;;;2.61;100.00;99811.00;5067235;28;20115;-48
2024/01/05 09:20:03;;;;;;;6.13;2.47;;;;;;;2.62;100.00;99810.66;5068178;28;20405;-46
2024/01/05 09:22:31;;;;;;;8.15;3.30;;;;;;;2.63;100.00;99816.94;5067212;28;20084;-50
2024/01/05 09:24:58;;;;;;;14.07;3.17;;;;;;;2.65;100.00;99815.50;5067114;28;20032;-45
2024/01/05 09:27:25;;;;;;;9.93;2.83;;;;;;;2.67;100.00;99824.22;5067040;28;20517;-47
2024/01/05 09:29:56;;;;;;;9.70;2.58;;;;;;;2.69;100.00;99832.91;5056294;28;20054;-46
2024/01/05 09:32:24;;;;;;;6.30;1.88;;;;;;;2.70;100.00;99826.28;5067184;28;20057;-46
2024/01/05 09:34:51;;;;;;;5.88;1.85;;;;;;;2.73;100.00;99822.94;5067636;28;20057;-47
2024/01/05 09:37:19;;;;;;;13.93;2.70;;;;;;;2.76;100.00;99821.50;5067064;28;20052;-47
2024/01/05 09:39:47;;;;;;;10.43;2.20;;;;;;;2.78;100.00;99828.25;5049514;28;20045;-50
2024/01/05 09:42:14;;;;;;;5.95;1.80;;;;;;;2.79;100.00;99842.75;5067424;28;20044;-46
2024/01/05 09:44:42;;;;;;;9.98;2.25;;;;;;;2.80;100.00;99839.69;5068345;28;20047;-46
2024/01/05 09:47:10;;;;;;;7.13;2.78;;;;;;;2.79;100.00;99843.53;5067707;28;20052;-46
2024/01/05 09:49:44;;;;;;;9.07;2.75;;;;;;;2.83;100.00;99846.47;5066402;28;20048;-46
2024/01/05 09:52:12;;;;;;;7.65;2.22;;;;;;;2.84;100.00;99851.59;5067250;28;20468;-47
2024/01/05 09:54:41;;;;;;;8.15;1.98;;;;;;;2.87;100.00;99850.16;5067109;28;20052;-47
2024/01/05 09:57:17;;;;;;;11.00;1.85;;;;;;;2.89;100.00;99859.66;5066975;28;20048;-46
2024/01/05 09:59:47;;;;;;;8.73;2.08;;;;;;;2.92;100.00;99859.03;5066328;28;20545;-46
2024/01/05 10:02:24;;;;;;;6.40;1.48;;;;;;;2.97;100.00;99869.81;5064934;28;20078;-46
2024/01/05 10:04:55;;;;;;;12.57;2.10;;;;;;;3.03;100.00;99865.84;5066973;28;20048;-45
2024/01/05 10:07:22;;;;;;;4.70;1.33;;;;;;;3.11;100.00;99871.63;5067477;28;20056;-49
2024/01/05 10:09:51;;;;;;;5.40;1.50;;;;;;;3.20;100.00;99884.22;5067409;28;20048;-49
2024/01/05 10:12:19;;;;;;;4.30;1.25;;;;;;;3.30;100.00;99885.84;5057484;28;20036;-47
2024/01/05 10:14:47;;;;;;;4.18;1.45;;;;;;;3.39;100.00;99878.50;5049500;28;20732;-46
2024/01/05 10:17:18;;;;;;;4.30;1.40;;;;;;;3.45;100.00;99888.94;5066306;28;20044;-45
2024/01/05 10:19:46;;;;;;;10.45;1.90;;;;;;;3.54;100.00;99894.44;5050058;28;20045;-44
2024/01/05 10:22:14;;;;;;;4.28;1.27;;;;;;;3.61;100.00;99902.97;5063005;28;20041;-46
2024/01/05 10:24:42;;;;;;;4.13;1.08;;;;;;;3.68;100.00;99903.31;5066788;28;20041;-48
2024/01/05 10:27:11;;;;;;;6.63;1.40;;;;;;;3.75;100.00;99914.59;5066470;28;20063;-49
2024/01/05 10:29:43;;;;;;;6.00;1.60;;;;;;;3.77;100.00;99901.41;5066666;28;20044;-45
2024/01/05 10:32:19;;;;;;;11.50;2.22;;;;;;;3.80;100.00;99910.91;5058915;28;20053;-45
2024/01/05 10:34:49;;;;;;;5.10;1.38;;;;;;;3.81;100.00;99918.81;5066969;28;20059;-45
2024/01/05 10:37:21;;;;;;;3.30;1.88;;;;;;;3.83;100.00;99922.03;5066702;28;20585;-47
2024/01/05 10:39:51;;;;;;;4.28;1.83;;;;;;;3.86;100.00;99923.31;5065260;28;20044;-44
2024/01/05 10:42:22;;;;;;;5.97;1.38;;;;;;;3.87;100.00;99922.16;5049029;28;20056;-46
2024/01/05 10:44:52;;;;;;;2.70;1.27;;;;;;;3.89;100.00;99928.94;5049350;28;20056;-45
2024/01/05 10:47:21;;;;;;;6.07;1.80;;;;;;;3.92;100.00;99933.78;5065956;28;20054;-44
2024/01/05 10:49:51;;;;;;;4.38;1.70;;;;;;;3.92;100.00;99936.50;5063221;28;20055;-47
2024/01/05 10:52:20;;;;;;;10.02;1.70;;;;;;;3.96;100.00;99936.69;5065305;28;20047;-46
2024/01/05 10:54:52;;;;;;;9.35;2.17;;;;;;;3.98;100.00;99935.25;5048479;28;20040;-47
2024/01/05 10:57:23;;;;;;;7.45;1.80;;;;;;;4.00;100.00;99932.97;5065726;28;20056;-47
2024/01/05 10:59:54;;;;;;;7.68;3.38;;;;;;;4.02;100.00;99947.19;5049497;28;20044;-47
2024/01/05 11:02:29;;;;;;;8.93;2.42;;;;;;;4.06;100.00;99939.09;5065366;28;20056;-44
2024/01/05 11:05:05;;;;;;;13.38;2.25;;;;;;;4.08;100.00;99945.88;5065545;28;20052;-50
2024/01/05 11:07:34;;;;;;;6.32;2.17;;;;;;;4.11;100.00;99939.75;5066019;28;20048;-47
2024/01/05 11:10:04;;;;;;;10.02;2.60;;;;;;;4.16;100.00;99952.47;5062062;28;20055;-47
2024/01/05 11:12:57;;;;;;;5.88;1.88;;;;;;;4.18;100.00;99942.03;5059570;28;20056;-46
2024/01/05 11:15:35;;;;;;;12.00;3.65;;;;;;;4.20;100.00;99946.06;5047293;28;20052;-48
2024/01/05 11:18:15;;;;;;;9.93;2.08;;;;;;;4.22;100.00;99940.25;5071094;28;20161;-49
2024/01/05 11:20:50;;;;;;;9.55;4.20;;;;;;;4.23;100.00;99950.88;5072467;28;20807;-45
2024/01/05 11:23:19;;;;;;;9.77;2.08;;;;;;;4.27;100.00;99953.78;5054162;28;20033;-47
2024/01/05 11:25:48;;;;;;;9.35;2.88;;;;;;;4.31;100.00;99955.53;5065193;28;20040;-47
2024/01/05 11:28:40;;;;;;;6.20;2.17;;;;;;;4.34;100.00;99942.34;5067772;28;20083;-45
2024/01/05 11:31:08;;;;;;;6.07;2.10;;;;;;;4.38;100.00;99937.81;5072436;28;20048;-50